createdAt,value
2023-04-16T00:01:44.218Z,13.1
2023-04-16T00:04:14.942Z,13
2023-04-16T00:06:45.405Z,12.9
2023-04-16T00:09:16.723Z,12.8
2023-04-16T00:11:47.429Z,12.9
2023-04-16T00:14:18.381Z,12.8
2023-04-16T00:16:50.094Z,12.8
2023-04-16T00:19:20.981Z,12.9
2023-04-16T00:21:51.725Z,12.9
2023-04-16T00:24:22.862Z,12.7
2023-04-16T00:26:53.935Z,12.8
2023-04-16T00:29:25.373Z,12.8
2023-04-16T00:31:56.419Z,12.6
2023-04-16T00:34:27.448Z,12.6
2023-04-16T00:36:58.802Z,12.4
2023-04-16T00:39:29.814Z,12.5
2023-04-16T00:42:00.656Z,12.5
2023-04-16T00:44:31.599Z,12.4
2023-04-16T00:47:02.467Z,12.3
2023-04-16T00:49:33.479Z,12.4
2023-04-16T00:52:04.240Z,12.5
2023-04-16T00:54:34.936Z,12.5
2023-04-16T00:57:05.645Z,12.3
2023-04-16T00:59:36.307Z,12.4
2023-04-16T01:02:06.394Z,12.3
2023-04-16T01:04:37.337Z,12.1
2023-04-16T01:07:08.241Z,12.2
2023-04-16T01:09:39.221Z,12.2
2023-04-16T01:12:10.246Z,12.1
2023-04-16T01:14:41.023Z,12.1
2023-04-16T01:17:12.105Z,12.2
2023-04-16T01:19:43.451Z,12.2
2023-04-16T01:22:14.228Z,12
2023-04-16T01:24:45.070Z,11.9
2023-04-16T01:27:15.858Z,12
2023-04-16T01:29:46.926Z,11.8
2023-04-16T01:32:17.485Z,11.9
2023-04-16T01:34:48.375Z,11.9
2023-04-16T01:37:18.743Z,11.8
2023-04-16T01:39:49.763Z,11.7
2023-04-16T01:42:23.071Z,11.8
2023-04-16T01:44:53.616Z,11.7
2023-04-16T01:47:24.416Z,11.5
2023-04-16T01:49:55.204Z,11.7
2023-04-16T01:52:26.207Z,11.7
2023-04-16T01:54:56.803Z,11.8
2023-04-16T01:57:27.108Z,11.8
2023-04-16T01:59:58.157Z,11.7
2023-04-16T02:02:29.315Z,11.6
2023-04-16T02:05:00.001Z,11.6
2023-04-16T02:07:30.527Z,11.6
2023-04-16T02:10:14.768Z,11.5
2023-04-16T02:12:45.190Z,11.5
2023-04-16T02:15:15.958Z,11.4
2023-04-16T02:17:47.066Z,11.4
2023-04-16T02:20:18.907Z,11.2
2023-04-16T02:22:49.983Z,11.3
2023-04-16T02:25:20.606Z,11.2
2023-04-16T02:27:51.323Z,11.2
2023-04-16T02:30:22.310Z,11.1
2023-04-16T02:32:53.787Z,11.2
2023-04-16T02:35:24.699Z,11.1
2023-04-16T02:37:55.490Z,11
2023-04-16T02:40:26.438Z,10.9
2023-04-16T02:42:56.584Z,11
2023-04-16T02:45:27.414Z,10.9
2023-04-16T02:47:58.214Z,10.9
2023-04-16T02:50:29.701Z,10.9
2023-04-16T02:52:59.900Z,10.7
2023-04-16T02:55:30.398Z,10.6
2023-04-16T02:58:01.384Z,10.5
2023-04-16T03:00:32.092Z,10.5
2023-04-16T03:03:03.280Z,10.6
2023-04-16T03:05:33.999Z,10.6
2023-04-16T03:08:04.156Z,10.6
2023-04-16T03:10:35.329Z,10.6
2023-04-16T03:13:06.505Z,10.7
2023-04-16T03:15:36.914Z,10.6
2023-04-16T03:18:08.031Z,10.5
2023-04-16T03:20:44.337Z,10.5
2023-04-16T03:23:21.715Z,10.6
2023-04-16T03:25:52.566Z,10.7
2023-04-16T03:28:23.075Z,10.6
2023-04-16T03:30:55.137Z,10.5
2023-04-16T03:33:25.859Z,10.4
2023-04-16T03:35:56.883Z,10.6
2023-04-16T03:38:27.464Z,10.5
2023-04-16T03:40:58.305Z,10.5
2023-04-16T03:43:29.024Z,10.5
2023-04-16T03:46:00.563Z,10.5
2023-04-16T03:48:31.159Z,10.6
2023-04-16T03:51:02.410Z,10.5
2023-04-16T03:53:40.798Z,10.4
2023-04-16T03:56:11.832Z,10.4
2023-04-16T03:58:43.009Z,10.5
2023-04-16T04:01:13.793Z,10.4
2023-04-16T04:03:44.713Z,10.4
2023-04-16T04:06:15.128Z,10.4
2023-04-16T04:08:45.685Z,10.3
2023-04-16T04:11:16.684Z,10.3
2023-04-16T04:13:47.864Z,10.2
2023-04-16T04:16:18.526Z,10.4
2023-04-16T04:18:49.815Z,10.4
2023-04-16T04:21:20.579Z,10.4
2023-04-16T04:23:56.407Z,10.4
2023-04-16T04:26:27.057Z,10.5
2023-04-16T04:28:57.641Z,10.6
2023-04-16T04:31:37.260Z,10.7
2023-04-16T04:34:07.547Z,10.7
2023-04-16T04:36:38.824Z,10.6
2023-04-16T04:39:10.154Z,10.6
2023-04-16T04:41:46.559Z,10.6
2023-04-16T04:44:17.806Z,10.8
2023-04-16T04:46:48.333Z,10.8
2023-04-16T04:49:19.098Z,10.8
2023-04-16T04:51:49.865Z,10.8
2023-04-16T04:54:20.508Z,10.8
2023-04-16T04:56:51.113Z,10.9
2023-04-16T04:59:22.372Z,10.9
2023-04-16T05:01:53.271Z,10.9
2023-04-16T05:04:24.276Z,11
2023-04-16T05:06:55.150Z,11
2023-04-16T05:09:25.825Z,11.1
2023-04-16T05:11:56.552Z,11.1
2023-04-16T05:14:27.139Z,11.2
2023-04-16T05:16:58.101Z,11.3
2023-04-16T05:19:28.915Z,11.3
2023-04-16T05:21:59.756Z,11.3
2023-04-16T05:24:30.577Z,11.4
2023-04-16T05:27:01.293Z,11.4
2023-04-16T05:29:32.071Z,11.4
2023-04-16T05:32:05.828Z,11.4
2023-04-16T05:34:36.854Z,11.3
2023-04-16T05:37:07.634Z,11.5
2023-04-16T05:39:38.360Z,11.6
2023-04-16T05:42:08.708Z,11.6
2023-04-16T05:44:39.547Z,11.7
2023-04-16T05:47:11.278Z,11.7
2023-04-16T05:49:42.286Z,11.7
2023-04-16T05:52:13.476Z,11.8
2023-04-16T05:54:44.632Z,11.9
2023-04-16T05:57:16.052Z,12
2023-04-16T05:59:46.959Z,12
2023-04-16T06:02:17.717Z,12
2023-04-16T06:04:48.764Z,12.1
2023-04-16T06:07:19.990Z,12.1
2023-04-16T06:09:50.698Z,12.1
2023-04-16T06:12:21.239Z,12.2
2023-04-16T06:14:52.272Z,12.2
2023-04-16T06:17:24.340Z,12.3
2023-04-16T06:19:55.178Z,12.4
2023-04-16T06:22:24.744Z,12.5
2023-04-16T06:24:55.585Z,12.5
2023-04-16T06:27:26.527Z,12.6
2023-04-16T06:29:57.317Z,12.9
2023-04-16T06:32:30.664Z,12.9
2023-04-16T06:35:01.344Z,13.1
2023-04-16T06:37:32.437Z,13.2
2023-04-16T06:40:03.670Z,13
2023-04-16T06:42:35.557Z,13.2
2023-04-16T06:45:06.135Z,13.4
2023-04-16T06:47:36.715Z,13.6
2023-04-16T06:50:07.509Z,13.8
2023-04-16T06:52:38.475Z,14
2023-04-16T06:55:09.468Z,14.1
2023-04-16T06:57:40.889Z,14.1
2023-04-16T07:00:11.606Z,14.3
2023-04-16T07:02:42.900Z,14.5
2023-04-16T07:05:14.138Z,14.6
2023-04-16T07:07:44.703Z,14.6
2023-04-16T07:10:15.396Z,14.6
2023-04-16T07:12:46.107Z,14.7
2023-04-16T07:15:16.989Z,14.9
2023-04-16T07:17:47.885Z,15
2023-04-16T07:20:18.654Z,15.1
2023-04-16T07:22:49.531Z,15.4
2023-04-16T07:25:20.343Z,15.5
2023-04-16T07:27:51.424Z,15.7
2023-04-16T07:30:22.625Z,15.9
2023-04-16T07:32:53.462Z,16.1
2023-04-16T07:35:23.818Z,16.3
2023-04-16T07:37:54.905Z,16.4
2023-04-16T07:40:26.095Z,16.6
2023-04-16T07:42:56.783Z,16.7
2023-04-16T07:45:27.738Z,16.9
2023-04-16T07:47:58.319Z,17
2023-04-16T07:50:28.997Z,17.2
2023-04-16T07:52:59.811Z,17.4
2023-04-16T07:55:30.548Z,17.4
2023-04-16T07:58:01.362Z,17.7
2023-04-16T08:00:32.023Z,17.8
2023-04-16T08:03:03.331Z,17.8
2023-04-16T08:05:34.187Z,17.8
2023-04-16T08:08:04.691Z,17.9
2023-04-16T08:10:35.532Z,18
2023-04-16T08:13:06.022Z,18.1
2023-04-16T08:15:36.668Z,18.3
2023-04-16T08:18:07.745Z,18.4
2023-04-16T08:20:38.440Z,18.5
2023-04-16T08:23:09.385Z,18.6
2023-04-16T08:25:41.282Z,18.6
2023-04-16T08:28:12.459Z,18.6
2023-04-16T08:30:43.293Z,18.8
2023-04-16T08:33:14.242Z,18.9
2023-04-16T08:35:44.914Z,18.9
2023-04-16T08:38:15.851Z,19
2023-04-16T08:40:47.828Z,19.2
2023-04-16T08:43:18.631Z,19.3
2023-04-16T08:45:49.105Z,19.4
2023-04-16T08:48:20.247Z,19.5
2023-04-16T08:50:52.199Z,19.7
2023-04-16T08:53:22.772Z,19.5
2023-04-16T08:55:54.879Z,19.5
2023-04-16T08:58:26.007Z,19.6
2023-04-16T09:00:57.092Z,19.5
2023-04-16T09:03:27.605Z,19.3
2023-04-16T09:06:01.668Z,19.1
2023-04-16T09:08:32.506Z,19.4
2023-04-16T09:11:03.092Z,19.3
2023-04-16T09:13:33.832Z,19.4
2023-04-16T09:16:04.150Z,19.5
2023-04-16T09:18:35.690Z,19.6
2023-04-16T09:21:06.383Z,19.6
2023-04-16T09:23:36.851Z,19.5
2023-04-16T09:26:07.833Z,19.6
2023-04-16T09:28:38.671Z,19.6
2023-04-16T09:31:09.169Z,19.4
2023-04-16T09:33:39.796Z,19.5
2023-04-16T09:36:19.705Z,19.5
2023-04-16T09:38:49.927Z,19.9
2023-04-16T09:41:20.703Z,20
2023-04-16T09:43:52.523Z,20.2
2023-04-16T09:46:23.381Z,20.2
2023-04-16T09:48:53.603Z,20.1
2023-04-16T09:51:24.287Z,20.1
2023-04-16T09:53:54.592Z,20.1
2023-04-16T09:56:26.313Z,20.3
2023-04-16T09:58:58.651Z,20.4
2023-04-16T10:01:29.240Z,20.7
2023-04-16T10:04:05.489Z,20.7
2023-04-16T10:06:35.992Z,20.8
2023-04-16T10:09:06.365Z,20.6
2023-04-16T10:11:36.487Z,20.4
2023-04-16T10:14:07.354Z,20.5
2023-04-16T10:16:36.564Z,20.4
2023-04-16T10:19:05.675Z,20.4
2023-04-16T10:21:41.845Z,20.2
2023-04-16T10:24:16.414Z,20.3
2023-04-16T10:26:46.960Z,20.2
2023-04-16T10:29:17.580Z,20.3
2023-04-16T10:31:48.556Z,20.4
2023-04-16T10:34:19.839Z,20.4
2023-04-16T10:36:50.241Z,20.3
2023-04-16T10:39:21.172Z,20.3
2023-04-16T10:41:51.715Z,20.2
2023-04-16T10:44:22.453Z,20.3
2023-04-16T10:46:53.211Z,20.4
2023-04-16T10:49:23.841Z,20.6
2023-04-16T10:51:54.363Z,20.5
2023-04-16T10:54:24.997Z,20.5
2023-04-16T10:56:55.526Z,20.6
2023-04-16T10:59:26.099Z,20.5
2023-04-16T11:01:56.876Z,20.7
2023-04-16T11:04:27.872Z,21
2023-04-16T11:06:58.543Z,21.3
2023-04-16T11:09:27.798Z,21.3
2023-04-16T11:11:58.708Z,21.4
2023-04-16T11:14:29.832Z,21.4
2023-04-16T11:17:00.301Z,21.4
2023-04-16T11:19:31.174Z,21.6
2023-04-16T11:22:01.992Z,21.6
2023-04-16T11:27:03.462Z,21.4
2023-04-16T11:29:34.170Z,21
2023-04-16T11:32:05.042Z,21
2023-04-16T11:34:35.700Z,21.1
2023-04-16T11:37:09.421Z,21.1
2023-04-16T11:39:39.987Z,21.2
2023-04-16T11:42:20.089Z,21.3
2023-04-16T11:44:50.565Z,21.5
2023-04-16T11:47:21.220Z,21.5
2023-04-16T11:49:51.555Z,21.1
2023-04-16T11:52:22.427Z,21.4
2023-04-16T11:54:53.780Z,21.6
2023-04-16T11:57:24.669Z,21.6
2023-04-16T12:00:01.220Z,21.6
2023-04-16T12:02:26.560Z,21.5
2023-04-16T12:04:56.871Z,21.5
2023-04-16T12:07:27.509Z,21.4
2023-04-16T12:09:58.896Z,21.6
2023-04-16T12:12:29.595Z,21.5
2023-04-16T12:15:04.173Z,21.5
2023-04-16T12:17:35.778Z,21.4
2023-04-16T12:20:10.091Z,21.4
2023-04-16T12:22:43.811Z,21.4
2023-04-16T12:25:15.550Z,21.3
2023-04-16T12:27:52.953Z,21.4
2023-04-16T12:30:20.843Z,21.1
2023-04-16T12:32:59.859Z,21.1
2023-04-16T12:35:39.051Z,21.1
2023-04-16T12:38:08.950Z,21.4
2023-04-16T12:40:39.746Z,21.5
2023-04-16T12:43:10.390Z,21.5
2023-04-16T12:45:42.125Z,21.5
2023-04-16T12:48:18.073Z,21.5
2023-04-16T12:50:49.305Z,21.4
2023-04-16T12:53:20.022Z,21.5
2023-04-16T12:55:50.234Z,21.5
2023-04-16T12:58:21.232Z,21.6
2023-04-16T13:00:50.156Z,21.7
2023-04-16T13:03:22.063Z,21.6
2023-04-16T13:06:01.703Z,21.6
2023-04-16T13:08:31.910Z,21.5
2023-04-16T13:11:02.360Z,21.4
2023-04-16T13:13:33.060Z,21.4
2023-04-16T13:16:03.537Z,21.3
2023-04-16T13:18:34.047Z,21.3
2023-04-16T13:24:07.844Z,21.1
2023-04-16T13:34:35.013Z,21.2
2023-04-16T13:37:05.264Z,21.2
2023-04-16T13:39:35.704Z,21.2
2023-04-16T13:44:57.141Z,21.1
2023-04-16T13:47:27.940Z,20.9
2023-04-16T13:49:58.507Z,20.9
2023-04-16T13:52:29.130Z,21
2023-04-16T13:55:00.178Z,21.1
2023-04-16T13:57:30.262Z,21.1
2023-04-16T14:00:00.936Z,21.2
2023-04-16T14:02:31.520Z,21.2
2023-04-16T14:05:02.354Z,21.1
2023-04-16T14:07:32.660Z,20.8
2023-04-16T14:10:03.542Z,20.9
2023-04-16T14:12:34.529Z,20.9
2023-04-16T14:15:05.682Z,20.9
2023-04-16T14:17:36.398Z,20.9
2023-04-16T14:20:07.025Z,20.8
2023-04-16T14:22:38.032Z,20.8
2023-04-16T14:25:09.758Z,20.8
2023-04-16T14:30:38.719Z,20.6
2023-04-16T14:33:18.284Z,20.8
2023-04-16T14:35:54.342Z,20.7
2023-04-16T14:38:30.535Z,20.6
2023-04-16T14:43:45.982Z,20.7
2023-04-16T14:46:16.525Z,20.5
2023-04-16T14:48:46.615Z,20.6
2023-04-16T14:51:21.624Z,20.5
2023-04-16T14:56:32.918Z,20.3
2023-04-16T14:59:03.803Z,20.2
2023-04-16T15:01:43.533Z,20.1
2023-04-16T15:04:13.876Z,20
2023-04-16T15:06:46.437Z,20.1
2023-04-16T15:09:14.739Z,19.9
2023-04-16T15:11:45.319Z,19.9
2023-04-16T15:14:15.873Z,19.9
2023-04-16T15:16:56.131Z,20
2023-04-16T15:19:26.275Z,20
2023-04-16T15:22:02.598Z,19.9
2023-04-16T15:24:36.042Z,20
2023-04-16T15:27:16.830Z,19.9
2023-04-16T15:32:46.723Z,19.8
2023-04-16T15:35:25.400Z,19.5
2023-04-16T15:38:00.049Z,19.6
2023-04-16T15:40:30.899Z,19.4
2023-04-16T15:43:10.115Z,19.5
2023-04-16T15:45:40.393Z,19.4
2023-04-16T15:48:11.369Z,19.4
2023-04-16T15:50:41.599Z,19.4
2023-04-16T15:53:11.865Z,19.4
2023-04-16T15:55:44.929Z,19.3
2023-04-16T15:58:18.968Z,19.3
2023-04-16T16:00:49.177Z,19.3
2023-04-16T16:03:19.697Z,19.3
2023-04-16T16:05:54.327Z,19.3
2023-04-16T16:08:24.484Z,19.3
2023-04-16T16:10:54.654Z,19.2
2023-04-16T16:13:32.884Z,19.3
2023-04-16T16:16:04.503Z,19.2
2023-04-16T16:18:34.534Z,19
2023-04-16T16:21:05.739Z,19.1
2023-04-16T16:23:36.304Z,19
2023-04-16T16:26:07.017Z,19
2023-04-16T16:28:37.899Z,19
2023-04-16T16:31:17.591Z,18.9
2023-04-16T16:33:47.672Z,19
2023-04-16T16:36:18.355Z,19
2023-04-16T16:38:49.094Z,18.8
2023-04-16T16:41:19.859Z,18.8
2023-04-16T16:43:50.443Z,18.9
2023-04-16T16:46:21.155Z,18.8
2023-04-16T16:48:51.888Z,18.9
2023-04-16T16:51:22.369Z,18.8
2023-04-16T16:53:52.697Z,18.8
2023-04-16T16:56:23.326Z,18.8
2023-04-16T16:58:54.247Z,18.8
2023-04-16T17:01:24.839Z,18.8
2023-04-16T17:03:55.454Z,18.8
2023-04-16T17:06:26.036Z,18.8
2023-04-16T17:09:00.450Z,18.8
2023-04-16T17:11:30.690Z,18.8
2023-04-16T17:14:01.187Z,18.5
2023-04-16T17:16:32.140Z,18.5
2023-04-16T17:19:03.811Z,18.6
2023-04-16T17:21:34.284Z,18.6
2023-04-16T17:24:04.787Z,18.7
2023-04-16T17:26:35.465Z,18.6
2023-04-16T17:29:07.276Z,18.6
2023-04-16T17:31:37.500Z,18.6
2023-04-16T17:34:16.308Z,18.5
2023-04-16T17:36:47.109Z,18.5
2023-04-16T17:39:21.320Z,18.5
2023-04-16T17:41:51.810Z,18.4
2023-04-16T17:44:22.997Z,18.4
2023-04-16T17:46:53.560Z,18.2
2023-04-16T17:49:24.499Z,18.2
2023-04-16T17:51:55.919Z,18.1
2023-04-16T17:54:26.414Z,18.1
2023-04-16T17:56:58.336Z,18.2
2023-04-16T17:59:28.588Z,18.1
2023-04-16T18:01:58.780Z,18
2023-04-16T18:04:29.207Z,18
2023-04-16T18:06:59.682Z,18.2
2023-04-16T18:09:30.296Z,18
2023-04-16T18:12:00.671Z,18
2023-04-16T18:14:31.604Z,17.9
2023-04-16T18:17:04.290Z,17.9
2023-04-16T18:19:34.085Z,17.9
2023-04-16T18:22:04.252Z,17.9
2023-04-16T18:24:35.200Z,17.9
2023-04-16T18:27:07.215Z,17.9
2023-04-16T18:29:38.780Z,17.8
2023-04-16T18:32:09.801Z,17.8
2023-04-16T18:34:37.142Z,17.8
2023-04-16T18:39:39.875Z,17.8
2023-04-16T18:42:10.211Z,17.7
2023-04-16T18:44:40.506Z,17.8
2023-04-16T18:47:11.554Z,17.7
2023-04-16T18:49:41.889Z,17.7
2023-04-16T18:52:12.200Z,17.7
2023-04-16T18:54:42.716Z,17.7
2023-04-16T18:57:13.610Z,17.7
2023-04-16T18:59:44.127Z,17.6
2023-04-16T19:02:14.735Z,17.6
2023-04-16T19:04:45.772Z,17.6
2023-04-16T19:07:14.787Z,17.5
2023-04-16T19:09:45.180Z,17.5
2023-04-16T19:12:15.202Z,17.5
2023-04-16T19:14:44.158Z,17.5
2023-04-16T19:17:14.801Z,17.5
2023-04-16T19:19:44.954Z,17.3
2023-04-16T19:22:15.496Z,17.5
2023-04-16T19:24:44.876Z,17.4
2023-04-16T19:27:15.378Z,17.4
2023-04-16T19:29:44.308Z,17.4
2023-04-16T19:32:15.540Z,17.4
2023-04-16T19:34:44.564Z,17.3
2023-04-16T19:37:15.173Z,17.3
2023-04-16T19:39:45.869Z,17.2
2023-04-16T19:42:16.761Z,17.3
2023-04-16T19:44:47.168Z,17.2
2023-04-16T19:47:17.868Z,17.2
2023-04-16T19:49:48.442Z,17.2
2023-04-16T19:52:19.744Z,17.1
2023-04-16T19:54:51.746Z,17.2
2023-04-16T19:57:21.610Z,17.2
2023-04-16T19:59:54.638Z,17.1
2023-04-16T20:05:03.287Z,17
2023-04-16T20:07:36.742Z,17
2023-04-16T20:10:05.273Z,17.1
2023-04-16T20:15:35.662Z,17.2
2023-04-16T20:18:06.185Z,17.1
2023-04-16T20:20:37.311Z,17.2
2023-04-16T20:23:07.460Z,17.1
2023-04-16T20:25:38.198Z,17
2023-04-16T20:28:08.484Z,17
2023-04-16T20:30:40.053Z,17
2023-04-16T20:33:10.898Z,17
2023-04-16T20:35:41.576Z,17
2023-04-16T20:38:12.387Z,17
2023-04-16T20:40:43.750Z,16.9
2023-04-16T20:43:14.886Z,16.9
2023-04-16T20:45:45.802Z,16.8
2023-04-16T20:48:16.193Z,16.8
2023-04-16T20:50:47.045Z,16.8
2023-04-16T20:53:17.347Z,16.9
2023-04-16T20:55:47.555Z,16.9
2023-04-16T20:58:22.464Z,16.9
2023-04-16T21:00:53.480Z,16.9
2023-04-16T21:03:24.139Z,17
2023-04-16T21:05:55.105Z,17
2023-04-16T21:08:25.702Z,16.8
2023-04-16T21:10:56.788Z,16.9
2023-04-16T21:13:27.566Z,16.8
2023-04-16T21:15:58.728Z,16.7
2023-04-16T21:18:29.382Z,16.8
2023-04-16T21:21:00.020Z,16.8
2023-04-16T21:23:36.421Z,16.8
2023-04-16T21:26:06.850Z,16.7
2023-04-16T21:28:37.546Z,16.7
2023-04-16T21:31:08.605Z,16.7
2023-04-16T21:33:42.697Z,16.6
2023-04-16T21:36:13.992Z,16.6
2023-04-16T21:38:44.861Z,16.6
2023-04-16T21:41:15.886Z,16.6
2023-04-16T21:43:46.910Z,16.6
2023-04-16T21:46:17.762Z,16.6
2023-04-16T21:48:48.423Z,16.6
2023-04-16T21:51:19.241Z,16.5
2023-04-16T21:53:49.933Z,16.4
2023-04-16T21:56:20.653Z,16.4
2023-04-16T21:58:51.411Z,16.5
2023-04-16T22:01:23.045Z,16.5
2023-04-16T22:03:54.075Z,16.4
2023-04-16T22:06:24.713Z,16.4
2023-04-16T22:08:55.314Z,16.4
2023-04-16T22:11:26.181Z,16.4
2023-04-16T22:13:56.613Z,16.3
2023-04-16T22:16:27.281Z,16.4
2023-04-16T22:18:58.396Z,16.3
2023-04-16T22:21:28.901Z,16.3
2023-04-16T22:23:59.512Z,16.3
2023-04-16T22:26:29.933Z,16.3
2023-04-16T22:29:00.988Z,16.2
2023-04-16T22:31:31.575Z,16.2
2023-04-16T22:34:02.836Z,16.2
2023-04-16T22:36:31.216Z,16.2
2023-04-16T22:39:02.024Z,16.2
2023-04-16T22:41:32.469Z,16.2
2023-04-16T22:44:03.298Z,16.3
2023-04-16T22:46:35.298Z,16.3
2023-04-16T22:49:06.382Z,16.1
2023-04-16T22:51:36.875Z,15.9
2023-04-16T22:54:08.472Z,16
2023-04-16T22:56:39.399Z,16
2023-04-16T22:59:10.429Z,16
2023-04-16T23:01:40.712Z,16
2023-04-16T23:04:11.683Z,16
2023-04-16T23:06:42.650Z,16
2023-04-16T23:09:14.205Z,16
2023-04-16T23:11:44.589Z,16
2023-04-16T23:14:16.780Z,15.9
2023-04-16T23:16:46.936Z,15.9
2023-04-16T23:19:17.274Z,15.8
2023-04-16T23:21:48.415Z,15.8
2023-04-16T23:24:18.942Z,15.8
2023-04-16T23:26:49.491Z,15.6
2023-04-16T23:29:20.038Z,15.6
2023-04-16T23:31:51.471Z,15.7
2023-04-16T23:34:22.997Z,15.7
2023-04-16T23:36:54.108Z,15.6
2023-04-16T23:39:25.309Z,15.6
2023-04-16T23:41:56.682Z,15.6
2023-04-16T23:44:27.754Z,15.6
2023-04-16T23:46:58.881Z,15.6
2023-04-16T23:49:29.805Z,15.5
2023-04-16T23:52:01.021Z,15.5
2023-04-16T23:54:31.972Z,15.4
2023-04-16T23:57:03.086Z,15.5
2023-04-16T23:59:33.634Z,15.5
